sensor_id;sensor_type;location;lat;lon;timestamp;temperature;humidity
75217;HTU21D;63800;51.972;5.682;2023-01-20T00:00:21;0.98;105.05
75217;HTU21D;63800;51.972;5.682;2023-01-20T00:02:47;0.83;106.15
75217;HTU21D;63800;51.972;5.682;2023-01-20T00:05:12;0.68;107.62
75217;HTU21D;63800;51.972;5.682;2023-01-20T00:07:38;0.89;105.26
75217;HTU21D;63800;51.972;5.682;2023-01-20T00:10:04;0.90;105.11
75217;HTU21D;63800;51.972;5.682;2023-01-20T00:12:30;0.84;105.49
75217;HTU21D;63800;51.972;5.682;2023-01-20T00:14:56;0.89;105.22
75217;HTU21D;63800;51.972;5.682;2023-01-20T00:17:21;1.02;104.07
75217;HTU21D;63800;51.972;5.682;2023-01-20T00:19:47;0.80;106.18
75217;HTU21D;63800;51.972;5.682;2023-01-20T00:22:12;0.87;106.46
75217;HTU21D;63800;51.972;5.682;2023-01-20T00:24:38;0.80;106.11
75217;HTU21D;63800;51.972;5.682;2023-01-20T00:27:03;0.82;106.13
75217;HTU21D;63800;51.972;5.682;2023-01-20T00:29:29;0.99;104.69
75217;HTU21D;63800;51.972;5.682;2023-01-20T00:31:54;0.80;105.57
75217;HTU21D;63800;51.972;5.682;2023-01-20T00:34:20;0.86;105.05
75217;HTU21D;63800;51.972;5.682;2023-01-20T00:36:45;1.06;103.92
75217;HTU21D;63800;51.972;5.682;2023-01-20T00:39:10;0.88;104.86
75217;HTU21D;63800;51.972;5.682;2023-01-20T00:41:36;0.92;104.34
75217;HTU21D;63800;51.972;5.682;2023-01-20T00:44:01;0.87;104.92
75217;HTU21D;63800;51.972;5.682;2023-01-20T00:46:27;1.10;103.47
75217;HTU21D;63800;51.972;5.682;2023-01-20T00:48:52;1.18;102.63
75217;HTU21D;63800;51.972;5.682;2023-01-20T00:51:18;1.13;102.70
75217;HTU21D;63800;51.972;5.682;2023-01-20T00:53:43;1.02;103.34
75217;HTU21D;63800;51.972;5.682;2023-01-20T00:56:09;0.97;103.39
75217;HTU21D;63800;51.972;5.682;2023-01-20T00:58:34;1.28;101.43
75217;HTU21D;63800;51.972;5.682;2023-01-20T01:01:00;1.29;100.47
75217;HTU21D;63800;51.972;5.682;2023-01-20T01:03:26;1.23;100.93
75217;HTU21D;63800;51.972;5.682;2023-01-20T01:06:05;1.19;101.25
75217;HTU21D;63800;51.972;5.682;2023-01-20T01:08:30;1.23;101.11
75217;HTU21D;63800;51.972;5.682;2023-01-20T01:10:57;1.35;100.32
75217;HTU21D;63800;51.972;5.682;2023-01-20T01:13:22;1.47;100.72
75217;HTU21D;63800;51.972;5.682;2023-01-20T01:15:48;1.25;100.12
75217;HTU21D;63800;51.972;5.682;2023-01-20T01:18:14;1.40;99.44
75217;HTU21D;63800;51.972;5.682;2023-01-20T01:20:39;1.42;98.88
75217;HTU21D;63800;51.972;5.682;2023-01-20T01:23:04;1.39;99.25
75217;HTU21D;63800;51.972;5.682;2023-01-20T01:25:30;1.22;99.90
75217;HTU21D;63800;51.972;5.682;2023-01-20T01:27:55;1.12;100.24
75217;HTU21D;63800;51.972;5.682;2023-01-20T01:30:21;1.17;101.33
75217;HTU21D;63800;51.972;5.682;2023-01-20T01:32:49;1.07;100.87
75217;HTU21D;63800;51.972;5.682;2023-01-20T01:35:14;1.02;100.80
75217;HTU21D;63800;51.972;5.682;2023-01-20T01:37:40;1.14;100.35
75217;HTU21D;63800;51.972;5.682;2023-01-20T01:40:06;1.18;100.28
75217;HTU21D;63800;51.972;5.682;2023-01-20T01:42:32;1.17;100.19
75217;HTU21D;63800;51.972;5.682;2023-01-20T01:47:36;0.91;101.32
75217;HTU21D;63800;51.972;5.682;2023-01-20T01:50:03;1.06;100.31
75217;HTU21D;63800;51.972;5.682;2023-01-20T01:52:30;1.13;99.22
75217;HTU21D;63800;51.972;5.682;2023-01-20T01:54:55;1.10;100.44
75217;HTU21D;63800;51.972;5.682;2023-01-20T01:57:23;1.07;100.45
75217;HTU21D;63800;51.972;5.682;2023-01-20T01:59:49;1.04;101.04
75217;HTU21D;63800;51.972;5.682;2023-01-20T02:02:14;1.12;100.14
75217;HTU21D;63800;51.972;5.682;2023-01-20T02:04:40;1.17;100.64
75217;HTU21D;63800;51.972;5.682;2023-01-20T02:07:18;0.99;101.72
75217;HTU21D;63800;51.972;5.682;2023-01-20T02:09:44;1.08;102.10
75217;HTU21D;63800;51.972;5.682;2023-01-20T02:12:14;1.03;101.89
75217;HTU21D;63800;51.972;5.682;2023-01-20T02:14:44;1.08;101.53
75217;HTU21D;63800;51.972;5.682;2023-01-20T02:22:50;0.89;103.76
75217;HTU21D;63800;51.972;5.682;2023-01-20T02:28:24;1.11;102.08
75217;HTU21D;63800;51.972;5.682;2023-01-20T02:33:39;1.20;101.27
75217;HTU21D;63800;51.972;5.682;2023-01-20T02:36:17;0.97;101.36
75217;HTU21D;63800;51.972;5.682;2023-01-20T02:38:55;1.18;100.17
75217;HTU21D;63800;51.972;5.682;2023-01-20T02:52:38;0.95;101.89
75217;HTU21D;63800;51.972;5.682;2023-01-20T02:55:10;1.07;101.44
75217;HTU21D;63800;51.972;5.682;2023-01-20T02:58:06;1.14;101.12
75217;HTU21D;63800;51.972;5.682;2023-01-20T03:00:45;0.93;101.55
75217;HTU21D;63800;51.972;5.682;2023-01-20T03:03:17;0.86;101.86
75217;HTU21D;63800;51.972;5.682;2023-01-20T03:05:56;0.89;101.98
75217;HTU21D;63800;51.972;5.682;2023-01-20T03:08:26;0.97;102.04
75217;HTU21D;63800;51.972;5.682;2023-01-20T03:10:54;0.97;101.41
75217;HTU21D;63800;51.972;5.682;2023-01-20T03:13:28;1.10;100.05
75217;HTU21D;63800;51.972;5.682;2023-01-20T03:15:58;1.12;100.20
75217;HTU21D;63800;51.972;5.682;2023-01-20T03:18:24;0.80;102.68
75217;HTU21D;63800;51.972;5.682;2023-01-20T03:20:51;0.82;102.86
75217;HTU21D;63800;51.972;5.682;2023-01-20T03:23:16;1.01;101.81
75217;HTU21D;63800;51.972;5.682;2023-01-20T03:25:43;0.98;101.72
75217;HTU21D;63800;51.972;5.682;2023-01-20T03:28:10;0.69;104.02
75217;HTU21D;63800;51.972;5.682;2023-01-20T03:30:35;0.69;102.70
75217;HTU21D;63800;51.972;5.682;2023-01-20T03:33:01;0.76;102.60
75217;HTU21D;63800;51.972;5.682;2023-01-20T03:35:28;0.82;102.09
75217;HTU21D;63800;51.972;5.682;2023-01-20T03:37:53;0.87;101.93
75217;HTU21D;63800;51.972;5.682;2023-01-20T03:40:20;0.76;103.23
75217;HTU21D;63800;51.972;5.682;2023-01-20T03:42:57;0.79;103.42
75217;HTU21D;63800;51.972;5.682;2023-01-20T03:45:38;0.81;102.41
75217;HTU21D;63800;51.972;5.682;2023-01-20T03:50:56;0.83;102.00
75217;HTU21D;63800;51.972;5.682;2023-01-20T03:53:32;1.02;100.83
75217;HTU21D;63800;51.972;5.682;2023-01-20T03:56:07;0.74;102.99
75217;HTU21D;63800;51.972;5.682;2023-01-20T03:58:38;0.74;102.35
75217;HTU21D;63800;51.972;5.682;2023-01-20T04:01:07;0.68;102.57
75217;HTU21D;63800;51.972;5.682;2023-01-20T04:03:39;0.67;103.52
75217;HTU21D;63800;51.972;5.682;2023-01-20T04:06:07;0.69;101.84
75217;HTU21D;63800;51.972;5.682;2023-01-20T04:08:35;0.73;101.73
75217;HTU21D;63800;51.972;5.682;2023-01-20T04:11:04;0.63;103.00
75217;HTU21D;63800;51.972;5.682;2023-01-20T04:13:30;0.50;104.86
75217;HTU21D;63800;51.972;5.682;2023-01-20T04:15:57;0.61;103.10
75217;HTU21D;63800;51.972;5.682;2023-01-20T04:18:23;0.52;104.15
75217;HTU21D;63800;51.972;5.682;2023-01-20T04:20:53;0.69;102.24
75217;HTU21D;63800;51.972;5.682;2023-01-20T04:23:41;0.40;103.75
75217;HTU21D;63800;51.972;5.682;2023-01-20T04:26:08;0.78;102.16
75217;HTU21D;63800;51.972;5.682;2023-01-20T04:28:33;0.55;102.48
75217;HTU21D;63800;51.972;5.682;2023-01-20T04:30:59;0.69;101.51
75217;HTU21D;63800;51.972;5.682;2023-01-20T04:33:24;0.66;101.48
75217;HTU21D;63800;51.972;5.682;2023-01-20T04:35:49;0.60;101.76
75217;HTU21D;63800;51.972;5.682;2023-01-20T04:38:15;0.65;102.07
75217;HTU21D;63800;51.972;5.682;2023-01-20T04:40:41;0.71;102.01
75217;HTU21D;63800;51.972;5.682;2023-01-20T04:43:06;0.58;103.40
75217;HTU21D;63800;51.972;5.682;2023-01-20T04:45:34;0.66;102.66
75217;HTU21D;63800;51.972;5.682;2023-01-20T04:47:59;0.60;102.02
75217;HTU21D;63800;51.972;5.682;2023-01-20T04:50:25;0.88;100.02
75217;HTU21D;63800;51.972;5.682;2023-01-20T04:52:53;0.87;101.11
75217;HTU21D;63800;51.972;5.682;2023-01-20T04:55:19;0.64;102.44
75217;HTU21D;63800;51.972;5.682;2023-01-20T04:57:46;0.52;103.59
75217;HTU21D;63800;51.972;5.682;2023-01-20T05:00:12;0.36;104.73
75217;HTU21D;63800;51.972;5.682;2023-01-20T05:02:43;0.34;104.62
75217;HTU21D;63800;51.972;5.682;2023-01-20T05:05:09;0.33;103.89
75217;HTU21D;63800;51.972;5.682;2023-01-20T05:07:34;0.62;102.67
75217;HTU21D;63800;51.972;5.682;2023-01-20T05:10:00;0.43;103.99
75217;HTU21D;63800;51.972;5.682;2023-01-20T05:12:25;0.52;103.21
75217;HTU21D;63800;51.972;5.682;2023-01-20T05:14:51;0.60;102.23
75217;HTU21D;63800;51.972;5.682;2023-01-20T05:17:19;0.59;102.22
75217;HTU21D;63800;51.972;5.682;2023-01-20T05:19:44;0.71;101.76
75217;HTU21D;63800;51.972;5.682;2023-01-20T05:22:10;0.73;101.68
75217;HTU21D;63800;51.972;5.682;2023-01-20T05:24:35;0.72;101.62
75217;HTU21D;63800;51.972;5.682;2023-01-20T05:27:01;0.79;100.93
75217;HTU21D;63800;51.972;5.682;2023-01-20T05:29:27;0.69;102.37
75217;HTU21D;63800;51.972;5.682;2023-01-20T05:31:52;0.40;103.43
75217;HTU21D;63800;51.972;5.682;2023-01-20T05:34:18;0.49;102.87
75217;HTU21D;63800;51.972;5.682;2023-01-20T05:36:44;0.36;104.12
75217;HTU21D;63800;51.972;5.682;2023-01-20T05:39:09;0.58;102.28
75217;HTU21D;63800;51.972;5.682;2023-01-20T05:41:35;0.39;103.92
75217;HTU21D;63800;51.972;5.682;2023-01-20T05:44:00;0.50;102.59
75217;HTU21D;63800;51.972;5.682;2023-01-20T05:46:26;0.20;104.04
75217;HTU21D;63800;51.972;5.682;2023-01-20T05:48:51;0.31;103.03
75217;HTU21D;63800;51.972;5.682;2023-01-20T05:51:17;0.30;103.53
75217;HTU21D;63800;51.972;5.682;2023-01-20T05:53:42;0.51;102.86
75217;HTU21D;63800;51.972;5.682;2023-01-20T05:56:08;0.31;104.31
75217;HTU21D;63800;51.972;5.682;2023-01-20T05:58:36;0.36;103.93
75217;HTU21D;63800;51.972;5.682;2023-01-20T06:01:09;0.31;103.66
75217;HTU21D;63800;51.972;5.682;2023-01-20T06:03:35;0.34;103.18
75217;HTU21D;63800;51.972;5.682;2023-01-20T06:06:02;0.43;102.49
75217;HTU21D;63800;51.972;5.682;2023-01-20T06:08:28;0.43;102.71
75217;HTU21D;63800;51.972;5.682;2023-01-20T06:10:53;0.31;104.01
75217;HTU21D;63800;51.972;5.682;2023-01-20T06:13:19;0.16;105.13
75217;HTU21D;63800;51.972;5.682;2023-01-20T06:15:50;0.19;106.01
75217;HTU21D;63800;51.972;5.682;2023-01-20T06:18:15;0.35;105.03
75217;HTU21D;63800;51.972;5.682;2023-01-20T06:20:40;0.48;102.38
75217;HTU21D;63800;51.972;5.682;2023-01-20T06:23:06;0.20;104.28
75217;HTU21D;63800;51.972;5.682;2023-01-20T06:25:31;0.37;102.92
75217;HTU21D;63800;51.972;5.682;2023-01-20T06:27:57;0.33;102.89
75217;HTU21D;63800;51.972;5.682;2023-01-20T06:30:23;0.22;103.57
75217;HTU21D;63800;51.972;5.682;2023-01-20T06:32:49;0.24;103.60
75217;HTU21D;63800;51.972;5.682;2023-01-20T06:35:14;0.24;103.60
75217;HTU21D;63800;51.972;5.682;2023-01-20T06:37:40;0.17;104.64
75217;HTU21D;63800;51.972;5.682;2023-01-20T06:40:06;0.17;105.72
75217;HTU21D;63800;51.972;5.682;2023-01-20T06:42:31;0.42;103.33
75217;HTU21D;63800;51.972;5.682;2023-01-20T06:44:57;0.31;104.15
75217;HTU21D;63800;51.972;5.682;2023-01-20T06:47:22;0.57;102.23
75217;HTU21D;63800;51.972;5.682;2023-01-20T06:49:48;0.43;103.31
75217;HTU21D;63800;51.972;5.682;2023-01-20T06:52:15;0.39;103.34
75217;HTU21D;63800;51.972;5.682;2023-01-20T06:54:41;0.39;103.47
75217;HTU21D;63800;51.972;5.682;2023-01-20T06:57:07;0.43;102.98
75217;HTU21D;63800;51.972;5.682;2023-01-20T06:59:32;0.43;102.80
75217;HTU21D;63800;51.972;5.682;2023-01-20T07:01:57;0.39;103.50
75217;HTU21D;63800;51.972;5.682;2023-01-20T07:04:23;0.37;104.00
75217;HTU21D;63800;51.972;5.682;2023-01-20T07:06:49;0.39;103.08
75217;HTU21D;63800;51.972;5.682;2023-01-20T07:09:17;0.35;103.39
75217;HTU21D;63800;51.972;5.682;2023-01-20T07:11:42;0.45;103.55
75217;HTU21D;63800;51.972;5.682;2023-01-20T07:14:08;0.39;103.33
75217;HTU21D;63800;51.972;5.682;2023-01-20T07:16:34;0.46;102.94
75217;HTU21D;63800;51.972;5.682;2023-01-20T07:19:00;0.25;103.52
75217;HTU21D;63800;51.972;5.682;2023-01-20T07:21:25;0.30;103.62
75217;HTU21D;63800;51.972;5.682;2023-01-20T07:23:51;0.22;104.66
75217;HTU21D;63800;51.972;5.682;2023-01-20T07:26:23;0.22;105.37
75217;HTU21D;63800;51.972;5.682;2023-01-20T07:28:50;0.24;105.37
75217;HTU21D;63800;51.972;5.682;2023-01-20T07:31:19;0.34;104.74
75217;HTU21D;63800;51.972;5.682;2023-01-20T07:33:45;0.28;104.53
75217;HTU21D;63800;51.972;5.682;2023-01-20T07:36:11;0.55;103.33
75217;HTU21D;63800;51.972;5.682;2023-01-20T07:38:37;0.38;103.53
75217;HTU21D;63800;51.972;5.682;2023-01-20T07:41:06;0.34;104.24
75217;HTU21D;63800;51.972;5.682;2023-01-20T07:43:49;0.61;102.67
75217;HTU21D;63800;51.972;5.682;2023-01-20T07:46:14;0.64;102.50
75217;HTU21D;63800;51.972;5.682;2023-01-20T07:48:40;0.46;103.98
75217;HTU21D;63800;51.972;5.682;2023-01-20T07:51:08;0.58;104.40
75217;HTU21D;63800;51.972;5.682;2023-01-20T07:53:36;0.58;104.38
75217;HTU21D;63800;51.972;5.682;2023-01-20T07:56:07;0.76;102.66
75217;HTU21D;63800;51.972;5.682;2023-01-20T07:58:33;0.55;104.44
75217;HTU21D;63800;51.972;5.682;2023-01-20T08:01:16;0.68;102.55
75217;HTU21D;63800;51.972;5.682;2023-01-20T08:03:43;0.29;107.20
75217;HTU21D;63800;51.972;5.682;2023-01-20T08:06:10;0.66;103.61
75217;HTU21D;63800;51.972;5.682;2023-01-20T08:08:37;0.61;104.00
75217;HTU21D;63800;51.972;5.682;2023-01-20T08:11:04;0.45;104.95
75217;HTU21D;63800;51.972;5.682;2023-01-20T08:13:30;0.66;103.83
75217;HTU21D;63800;51.972;5.682;2023-01-20T08:16:04;0.63;104.44
75217;HTU21D;63800;51.972;5.682;2023-01-20T08:18:30;0.40;106.50
75217;HTU21D;63800;51.972;5.682;2023-01-20T08:20:57;0.61;105.36
75217;HTU21D;63800;51.972;5.682;2023-01-20T08:23:22;0.77;103.63
75217;HTU21D;63800;51.972;5.682;2023-01-20T08:25:48;0.75;103.34
75217;HTU21D;63800;51.972;5.682;2023-01-20T08:28:14;0.78;103.65
75217;HTU21D;63800;51.972;5.682;2023-01-20T08:30:39;0.73;103.57
75217;HTU21D;63800;51.972;5.682;2023-01-20T08:33:05;0.50;105.70
75217;HTU21D;63800;51.972;5.682;2023-01-20T08:35:30;0.91;102.24
75217;HTU21D;63800;51.972;5.682;2023-01-20T08:37:56;0.65;103.37
75217;HTU21D;63800;51.972;5.682;2023-01-20T08:40:21;0.88;102.48
75217;HTU21D;63800;51.972;5.682;2023-01-20T08:42:47;0.88;102.95
75217;HTU21D;63800;51.972;5.682;2023-01-20T08:45:12;1.08;102.25
75217;HTU21D;63800;51.972;5.682;2023-01-20T08:47:40;1.24;100.68
75217;HTU21D;63800;51.972;5.682;2023-01-20T08:50:12;1.31;99.23
75217;HTU21D;63800;51.972;5.682;2023-01-20T08:52:37;1.33;98.39
75217;HTU21D;63800;51.972;5.682;2023-01-20T08:55:03;1.49;97.60
75217;HTU21D;63800;51.972;5.682;2023-01-20T08:57:29;1.42;98.01
75217;HTU21D;63800;51.972;5.682;2023-01-20T08:59:54;1.23;100.31
75217;HTU21D;63800;51.972;5.682;2023-01-20T09:02:20;1.22;99.64
75217;HTU21D;63800;51.972;5.682;2023-01-20T09:04:47;1.17;100.19
75217;HTU21D;63800;51.972;5.682;2023-01-20T09:07:14;1.04;101.54
75217;HTU21D;63800;51.972;5.682;2023-01-20T09:09:40;1.13;100.51
75217;HTU21D;63800;51.972;5.682;2023-01-20T09:12:05;1.25;100.09
75217;HTU21D;63800;51.972;5.682;2023-01-20T09:14:31;1.18;99.45
75217;HTU21D;63800;51.972;5.682;2023-01-20T09:16:57;1.17;99.49
75217;HTU21D;63800;51.972;5.682;2023-01-20T09:19:22;1.08;100.32
75217;HTU21D;63800;51.972;5.682;2023-01-20T09:21:48;1.03;100.93
75217;HTU21D;63800;51.972;5.682;2023-01-20T09:24:13;1.22;100.14
75217;HTU21D;63800;51.972;5.682;2023-01-20T09:26:39;0.97;102.03
75217;HTU21D;63800;51.972;5.682;2023-01-20T09:29:07;1.19;100.83
75217;HTU21D;63800;51.972;5.682;2023-01-20T09:31:44;1.10;101.52
75217;HTU21D;63800;51.972;5.682;2023-01-20T09:34:10;1.23;100.21
75217;HTU21D;63800;51.972;5.682;2023-01-20T09:36:36;1.17;101.03
75217;HTU21D;63800;51.972;5.682;2023-01-20T09:39:02;1.05;101.27
75217;HTU21D;63800;51.972;5.682;2023-01-20T09:41:47;0.78;104.08
75217;HTU21D;63800;51.972;5.682;2023-01-20T09:44:49;1.02;102.94
75217;HTU21D;63800;51.972;5.682;2023-01-20T09:47:24;0.77;103.86
75217;HTU21D;63800;51.972;5.682;2023-01-20T09:55:50;0.92;102.39
75217;HTU21D;63800;51.972;5.682;2023-01-20T10:07:11;1.19;101.54
75217;HTU21D;63800;51.972;5.682;2023-01-20T10:09:48;1.28;101.17
75217;HTU21D;63800;51.972;5.682;2023-01-20T10:12:31;0.99;103.82
75217;HTU21D;63800;51.972;5.682;2023-01-20T10:26:19;1.20;102.43
75217;HTU21D;63800;51.972;5.682;2023-01-20T10:28:52;1.19;101.86
75217;HTU21D;63800;51.972;5.682;2023-01-20T10:31:24;1.33;101.89
75217;HTU21D;63800;51.972;5.682;2023-01-20T10:33:53;1.05;103.24
75217;HTU21D;63800;51.972;5.682;2023-01-20T10:36:28;1.31;101.50
75217;HTU21D;63800;51.972;5.682;2023-01-20T10:39:31;1.33;102.68
75217;HTU21D;63800;51.972;5.682;2023-01-20T10:42:04;1.29;102.31
75217;HTU21D;63800;51.972;5.682;2023-01-20T10:44:33;1.53;100.64
75217;HTU21D;63800;51.972;5.682;2023-01-20T10:47:24;1.38;100.85
75217;HTU21D;63800;51.972;5.682;2023-01-20T10:58:26;1.35;102.11
75217;HTU21D;63800;51.972;5.682;2023-01-20T11:00:53;1.25;101.69
75217;HTU21D;63800;51.972;5.682;2023-01-20T11:03:21;1.45;101.57
75217;HTU21D;63800;51.972;5.682;2023-01-20T11:05:48;1.21;101.84
75217;HTU21D;63800;51.972;5.682;2023-01-20T11:08:19;1.46;101.45
75217;HTU21D;63800;51.972;5.682;2023-01-20T11:10:48;1.50;101.03
75217;HTU21D;63800;51.972;5.682;2023-01-20T11:13:14;1.65;100.65
75217;HTU21D;63800;51.972;5.682;2023-01-20T11:15:43;1.80;98.72
75217;HTU21D;63800;51.972;5.682;2023-01-20T11:20:42;1.72;100.11
75217;HTU21D;63800;51.972;5.682;2023-01-20T11:23:31;1.80;98.70
75217;HTU21D;63800;51.972;5.682;2023-01-20T11:26:07;1.65;98.61
75217;HTU21D;63800;51.972;5.682;2023-01-20T11:28:50;1.87;98.45
75217;HTU21D;63800;51.972;5.682;2023-01-20T11:31:16;2.06;96.87
75217;HTU21D;63800;51.972;5.682;2023-01-20T11:34:18;1.92;97.62
75217;HTU21D;63800;51.972;5.682;2023-01-20T11:36:44;1.61;100.86
75217;HTU21D;63800;51.972;5.682;2023-01-20T11:39:29;1.78;98.61
75217;HTU21D;63800;51.972;5.682;2023-01-20T11:44:55;1.70;98.23
75217;HTU21D;63800;51.972;5.682;2023-01-20T11:47:35;1.43;101.12
75217;HTU21D;63800;51.972;5.682;2023-01-20T11:52:40;1.51;100.77
75217;HTU21D;63800;51.972;5.682;2023-01-20T11:57:57;1.94;98.30
75217;HTU21D;63800;51.972;5.682;2023-01-20T12:00:40;1.92;98.42
75217;HTU21D;63800;51.972;5.682;2023-01-20T12:05:48;2.21;96.20
75217;HTU21D;63800;51.972;5.682;2023-01-20T12:11:17;2.24;96.57
75217;HTU21D;63800;51.972;5.682;2023-01-20T12:13:53;2.15;95.85
75217;HTU21D;63800;51.972;5.682;2023-01-20T12:16:42;2.29;95.07
75217;HTU21D;63800;51.972;5.682;2023-01-20T12:19:14;2.13;96.26
75217;HTU21D;63800;51.972;5.682;2023-01-20T12:21:47;2.27;93.95
75217;HTU21D;63800;51.972;5.682;2023-01-20T12:27:31;2.08;95.30
75217;HTU21D;63800;51.972;5.682;2023-01-20T12:30:02;2.09;95.03
75217;HTU21D;63800;51.972;5.682;2023-01-20T12:32:28;2.07;94.72
75217;HTU21D;63800;51.972;5.682;2023-01-20T12:34:56;1.90;94.68
75217;HTU21D;63800;51.972;5.682;2023-01-20T12:37:47;1.99;95.91
75217;HTU21D;63800;51.972;5.682;2023-01-20T12:40:42;2.09;95.16
75217;HTU21D;63800;51.972;5.682;2023-01-20T12:49:16;2.20;93.88
75217;HTU21D;63800;51.972;5.682;2023-01-20T12:51:54;2.03;94.36
75217;HTU21D;63800;51.972;5.682;2023-01-20T13:00:10;2.10;94.94
75217;HTU21D;63800;51.972;5.682;2023-01-20T13:08:28;2.20;93.22
75217;HTU21D;63800;51.972;5.682;2023-01-20T13:11:07;2.26;92.96
75217;HTU21D;63800;51.972;5.682;2023-01-20T13:16:43;2.23;93.81
75217;HTU21D;63800;51.972;5.682;2023-01-20T13:19:28;2.24;93.85
75217;HTU21D;63800;51.972;5.682;2023-01-20T13:21:54;2.25;93.77
75217;HTU21D;63800;51.972;5.682;2023-01-20T13:24:20;2.15;94.02
75217;HTU21D;63800;51.972;5.682;2023-01-20T13:26:54;2.13;94.56
75217;HTU21D;63800;51.972;5.682;2023-01-20T13:29:42;2.23;94.07
75217;HTU21D;63800;51.972;5.682;2023-01-20T13:32:27;2.12;94.52
75217;HTU21D;63800;51.972;5.682;2023-01-20T13:34:52;2.13;94.71
75217;HTU21D;63800;51.972;5.682;2023-01-20T13:37:24;2.08;95.23
75217;HTU21D;63800;51.972;5.682;2023-01-20T13:39:51;2.27;93.71
75217;HTU21D;63800;51.972;5.682;2023-01-20T13:42:51;2.00;94.37
75217;HTU21D;63800;51.972;5.682;2023-01-20T13:45:21;1.99;94.14
75217;HTU21D;63800;51.972;5.682;2023-01-20T13:48:00;2.16;92.79
75217;HTU21D;63800;51.972;5.682;2023-01-20T14:00:42;2.36;93.15
75217;HTU21D;63800;51.972;5.682;2023-01-20T14:03:32;2.08;93.86
75217;HTU21D;63800;51.972;5.682;2023-01-20T14:06:03;2.13;94.94
75217;HTU21D;63800;51.972;5.682;2023-01-20T14:08:51;2.19;94.79
75217;HTU21D;63800;51.972;5.682;2023-01-20T14:11:25;2.29;94.49
75217;HTU21D;63800;51.972;5.682;2023-01-20T14:13:59;2.40;93.71
75217;HTU21D;63800;51.972;5.682;2023-01-20T14:21:50;2.44;93.75
75217;HTU21D;63800;51.972;5.682;2023-01-20T14:24:33;2.52;92.83
75217;HTU21D;63800;51.972;5.682;2023-01-20T14:29:49;2.49;93.32
75217;HTU21D;63800;51.972;5.682;2023-01-20T14:34:45;2.58;92.90
75217;HTU21D;63800;51.972;5.682;2023-01-20T14:39:49;2.60;92.29
75217;HTU21D;63800;51.972;5.682;2023-01-20T14:42:20;2.37;93.27
75217;HTU21D;63800;51.972;5.682;2023-01-20T14:44:48;2.50;92.86
75217;HTU21D;63800;51.972;5.682;2023-01-20T14:47:14;2.65;91.56
75217;HTU21D;63800;51.972;5.682;2023-01-20T14:49:40;2.69;91.34
75217;HTU21D;63800;51.972;5.682;2023-01-20T14:52:19;2.55;91.10
75217;HTU21D;63800;51.972;5.682;2023-01-20T14:54:46;2.65;90.77
75217;HTU21D;63800;51.972;5.682;2023-01-20T14:57:23;2.67;90.31
75217;HTU21D;63800;51.972;5.682;2023-01-20T15:03:18;2.54;89.99
75217;HTU21D;63800;51.972;5.682;2023-01-20T15:16:28;2.52;90.74
75217;HTU21D;63800;51.972;5.682;2023-01-20T15:21:39;2.58;90.13
75217;HTU21D;63800;51.972;5.682;2023-01-20T15:24:19;2.46;91.41
75217;HTU21D;63800;51.972;5.682;2023-01-20T15:26:46;2.44;92.41
75217;HTU21D;63800;51.972;5.682;2023-01-20T15:29:29;2.35;91.85
75217;HTU21D;63800;51.972;5.682;2023-01-20T15:31:58;2.38;90.74
75217;HTU21D;63800;51.972;5.682;2023-01-20T15:34:25;2.46;90.69
75217;HTU21D;63800;51.972;5.682;2023-01-20T15:36:52;2.40;91.21
75217;HTU21D;63800;51.972;5.682;2023-01-20T15:39:20;2.44;91.36
75217;HTU21D;63800;51.972;5.682;2023-01-20T15:41:45;2.44;90.08
75217;HTU21D;63800;51.972;5.682;2023-01-20T15:44:13;2.26;90.82
75217;HTU21D;63800;51.972;5.682;2023-01-20T15:46:39;2.24;91.33
75217;HTU21D;63800;51.972;5.682;2023-01-20T15:49:09;2.31;90.67
75217;HTU21D;63800;51.972;5.682;2023-01-20T15:51:36;2.24;90.96
75217;HTU21D;63800;51.972;5.682;2023-01-20T15:54:02;2.27;90.98
75217;HTU21D;63800;51.972;5.682;2023-01-20T15:56:29;2.32;90.87
75217;HTU21D;63800;51.972;5.682;2023-01-20T15:58:56;2.34;91.09
75217;HTU21D;63800;51.972;5.682;2023-01-20T16:01:23;2.47;90.96
75217;HTU21D;63800;51.972;5.682;2023-01-20T16:03:50;2.35;92.12
75217;HTU21D;63800;51.972;5.682;2023-01-20T16:06:18;2.37;92.81
75217;HTU21D;63800;51.972;5.682;2023-01-20T16:08:45;2.35;92.87
75217;HTU21D;63800;51.972;5.682;2023-01-20T16:11:12;2.54;91.39
75217;HTU21D;63800;51.972;5.682;2023-01-20T16:13:38;2.67;90.04
75217;HTU21D;63800;51.972;5.682;2023-01-20T16:16:12;2.62;91.47
75217;HTU21D;63800;51.972;5.682;2023-01-20T16:18:39;2.49;91.67
75217;HTU21D;63800;51.972;5.682;2023-01-20T16:21:04;2.45;91.63
75217;HTU21D;63800;51.972;5.682;2023-01-20T16:23:30;2.44;92.12
75217;HTU21D;63800;51.972;5.682;2023-01-20T16:25:55;2.43;92.43
75217;HTU21D;63800;51.972;5.682;2023-01-20T16:28:21;2.56;90.85
75217;HTU21D;63800;51.972;5.682;2023-01-20T16:30:49;2.38;91.98
75217;HTU21D;63800;51.972;5.682;2023-01-20T16:33:20;2.38;92.01
75217;HTU21D;63800;51.972;5.682;2023-01-20T16:35:49;2.51;89.57
75217;HTU21D;63800;51.972;5.682;2023-01-20T16:38:17;2.53;89.75
75217;HTU21D;63800;51.972;5.682;2023-01-20T16:41:25;2.53;90.13
75217;HTU21D;63800;51.972;5.682;2023-01-20T16:43:53;2.59;89.83
75217;HTU21D;63800;51.972;5.682;2023-01-20T16:46:23;2.55;89.91
75217;HTU21D;63800;51.972;5.682;2023-01-20T16:48:50;2.56;89.03
75217;HTU21D;63800;51.972;5.682;2023-01-20T16:51:18;2.53;88.80
75217;HTU21D;63800;51.972;5.682;2023-01-20T16:53:44;2.62;87.93
75217;HTU21D;63800;51.972;5.682;2023-01-20T16:56:17;2.61;87.82
75217;HTU21D;63800;51.972;5.682;2023-01-20T16:58:48;2.61;87.51
75217;HTU21D;63800;51.972;5.682;2023-01-20T17:01:15;2.60;87.96
75217;HTU21D;63800;51.972;5.682;2023-01-20T17:03:45;2.55;87.88
75217;HTU21D;63800;51.972;5.682;2023-01-20T17:06:15;2.61;87.83
75217;HTU21D;63800;51.972;5.682;2023-01-20T17:08:49;2.57;88.02
75217;HTU21D;63800;51.972;5.682;2023-01-20T17:11:40;2.47;88.15
75217;HTU21D;63800;51.972;5.682;2023-01-20T17:14:06;2.49;87.46
75217;HTU21D;63800;51.972;5.682;2023-01-20T17:16:32;2.47;87.71
75217;HTU21D;63800;51.972;5.682;2023-01-20T17:18:59;2.46;87.21
75217;HTU21D;63800;51.972;5.682;2023-01-20T17:21:26;2.41;87.51
75217;HTU21D;63800;51.972;5.682;2023-01-20T17:23:55;2.36;87.77
75217;HTU21D;63800;51.972;5.682;2023-01-20T17:26:21;2.35;88.12
75217;HTU21D;63800;51.972;5.682;2023-01-20T17:28:47;2.38;87.54
75217;HTU21D;63800;51.972;5.682;2023-01-20T17:31:15;2.23;88.84
75217;HTU21D;63800;51.972;5.682;2023-01-20T17:33:44;2.22;88.52
75217;HTU21D;63800;51.972;5.682;2023-01-20T17:36:10;2.15;89.25
75217;HTU21D;63800;51.972;5.682;2023-01-20T17:38:36;2.30;88.18
75217;HTU21D;63800;51.972;5.682;2023-01-20T17:41:05;2.34;87.59
75217;HTU21D;63800;51.972;5.682;2023-01-20T17:43:35;2.23;88.22
75217;HTU21D;63800;51.972;5.682;2023-01-20T17:46:20;2.15;88.24
75217;HTU21D;63800;51.972;5.682;2023-01-20T17:48:47;2.16;88.40
75217;HTU21D;63800;51.972;5.682;2023-01-20T17:51:19;2.02;89.23
75217;HTU21D;63800;51.972;5.682;2023-01-20T17:53:45;2.03;88.73
75217;HTU21D;63800;51.972;5.682;2023-01-20T17:56:11;2.11;88.74
75217;HTU21D;63800;51.972;5.682;2023-01-20T17:58:37;2.10;88.01